sensor_id;sensor_type;location;lat;lon;timestamp;P1;durP1;ratioP1;P2;durP2;ratioP2
74373;SDS011;62809;51.090;-115.358;2022-10-23T00:01:43;4.50;;;1.80;;
74373;SDS011;62809;51.090;-115.358;2022-10-23T00:04:14;3.80;;;1.70;;
74373;SDS011;62809;51.090;-115.358;2022-10-23T00:06:45;3.80;;;1.70;;
74373;SDS011;62809;51.090;-115.358;2022-10-23T00:09:19;4.00;;;1.80;;
74373;SDS011;62809;51.090;-115.358;2022-10-23T00:11:50;3.70;;;1.90;;
74373;SDS011;62809;51.090;-115.358;2022-10-23T00:14:21;3.30;;;1.60;;
74373;SDS011;62809;51.090;-115.358;2022-10-23T00:16:50;2.90;;;1.70;;
74373;SDS011;62809;51.090;-115.358;2022-10-23T00:19:20;3.90;;;1.80;;
74373;SDS011;62809;51.090;-115.358;2022-10-23T00:21:47;4.20;;;1.90;;
74373;SDS011;62809;51.090;-115.358;2022-10-23T00:24:16;3.40;;;1.70;;
74373;SDS011;62809;51.090;-115.358;2022-10-23T00:26:44;4.50;;;1.90;;
74373;SDS011;62809;51.090;-115.358;2022-10-23T00:29:12;3.30;;;1.80;;
74373;SDS011;62809;51.090;-115.358;2022-10-23T00:31:40;4.10;;;1.90;;
74373;SDS011;62809;51.090;-115.358;2022-10-23T00:34:07;4.20;;;2.00;;
74373;SDS011;62809;51.090;-115.358;2022-10-23T00:36:38;4.10;;;2.10;;
74373;SDS011;62809;51.090;-115.358;2022-10-23T00:39:05;3.90;;;1.90;;
74373;SDS011;62809;51.090;-115.358;2022-10-23T00:41:33;4.30;;;2.10;;
74373;SDS011;62809;51.090;-115.358;2022-10-23T00:46:58;3.80;;;1.90;;
74373;SDS011;62809;51.090;-115.358;2022-10-23T00:49:25;5.70;;;3.30;;
74373;SDS011;62809;51.090;-115.358;2022-10-23T00:51:59;6.20;;;3.40;;
74373;SDS011;62809;51.090;-115.358;2022-10-23T00:54:37;5.90;;;2.80;;
74373;SDS011;62809;51.090;-115.358;2022-10-23T00:57:11;6.60;;;3.20;;
74373;SDS011;62809;51.090;-115.358;2022-10-23T00:59:40;5.80;;;3.10;;
74373;SDS011;62809;51.090;-115.358;2022-10-23T01:02:08;5.90;;;2.80;;
74373;SDS011;62809;51.090;-115.358;2022-10-23T01:04:39;6.60;;;2.90;;
74373;SDS011;62809;51.090;-115.358;2022-10-23T01:07:24;5.20;;;2.70;;
74373;SDS011;62809;51.090;-115.358;2022-10-23T01:10:15;6.60;;;2.70;;
74373;SDS011;62809;51.090;-115.358;2022-10-23T01:13:11;4.90;;;2.40;;
74373;SDS011;62809;51.090;-115.358;2022-10-23T01:18:59;5.80;;;2.60;;
74373;SDS011;62809;51.090;-115.358;2022-10-23T01:24:54;5.70;;;2.70;;
74373;SDS011;62809;51.090;-115.358;2022-10-23T01:27:51;5.10;;;2.60;;
74373;SDS011;62809;51.090;-115.358;2022-10-23T01:30:23;5.50;;;3.00;;
74373;SDS011;62809;51.090;-115.358;2022-10-23T01:32:55;5.50;;;2.50;;
74373;SDS011;62809;51.090;-115.358;2022-10-23T01:41:09;5.50;;;3.20;;
74373;SDS011;62809;51.090;-115.358;2022-10-23T01:44:13;6.60;;;3.30;;
74373;SDS011;62809;51.090;-115.358;2022-10-23T01:46:51;5.70;;;2.90;;
74373;SDS011;62809;51.090;-115.358;2022-10-23T01:49:20;6.10;;;3.30;;
74373;SDS011;62809;51.090;-115.358;2022-10-23T01:51:55;5.90;;;3.40;;
74373;SDS011;62809;51.090;-115.358;2022-10-23T01:54:34;5.90;;;3.30;;
74373;SDS011;62809;51.090;-115.358;2022-10-23T01:57:10;5.40;;;2.90;;
74373;SDS011;62809;51.090;-115.358;2022-10-23T01:59:48;6.30;;;3.30;;
74373;SDS011;62809;51.090;-115.358;2022-10-23T02:02:24;6.70;;;3.30;;
74373;SDS011;62809;51.090;-115.358;2022-10-23T02:05:14;5.60;;;3.10;;
74373;SDS011;62809;51.090;-115.358;2022-10-23T02:07:47;6.10;;;3.30;;
74373;SDS011;62809;51.090;-115.358;2022-10-23T02:10:16;6.20;;;3.40;;
74373;SDS011;62809;51.090;-115.358;2022-10-23T02:21:09;5.20;;;2.80;;
74373;SDS011;62809;51.090;-115.358;2022-10-23T02:23:55;7.00;;;3.40;;
74373;SDS011;62809;51.090;-115.358;2022-10-23T02:29:13;6.10;;;2.90;;
74373;SDS011;62809;51.090;-115.358;2022-10-23T02:31:45;5.00;;;2.70;;
74373;SDS011;62809;51.090;-115.358;2022-10-23T02:34:14;5.20;;;2.80;;
74373;SDS011;62809;51.090;-115.358;2022-10-23T02:36:46;6.00;;;2.80;;
74373;SDS011;62809;51.090;-115.358;2022-10-23T02:39:14;6.10;;;2.70;;
74373;SDS011;62809;51.090;-115.358;2022-10-23T02:44:31;5.30;;;2.70;;
74373;SDS011;62809;51.090;-115.358;2022-10-23T02:47:29;4.50;;;2.50;;
74373;SDS011;62809;51.090;-115.358;2022-10-23T02:50:32;4.70;;;2.60;;
74373;SDS011;62809;51.090;-115.358;2022-10-23T02:53:16;5.30;;;2.50;;
74373;SDS011;62809;51.090;-115.358;2022-10-23T03:01:54;4.40;;;2.40;;
74373;SDS011;62809;51.090;-115.358;2022-10-23T03:04:30;3.90;;;2.10;;
74373;SDS011;62809;51.090;-115.358;2022-10-23T03:06:59;4.90;;;2.30;;
74373;SDS011;62809;51.090;-115.358;2022-10-23T03:09:26;4.40;;;2.60;;
74373;SDS011;62809;51.090;-115.358;2022-10-23T03:11:54;4.00;;;2.30;;
74373;SDS011;62809;51.090;-115.358;2022-10-23T03:14:21;4.10;;;2.10;;
74373;SDS011;62809;51.090;-115.358;2022-10-23T03:16:48;3.80;;;2.10;;
74373;SDS011;62809;51.090;-115.358;2022-10-23T03:19:15;3.40;;;2.10;;
74373;SDS011;62809;51.090;-115.358;2022-10-23T03:21:43;4.00;;;2.10;;
74373;SDS011;62809;51.090;-115.358;2022-10-23T03:24:10;4.00;;;2.10;;
74373;SDS011;62809;51.090;-115.358;2022-10-23T03:26:39;4.00;;;2.30;;
74373;SDS011;62809;51.090;-115.358;2022-10-23T03:29:06;4.40;;;2.40;;
74373;SDS011;62809;51.090;-115.358;2022-10-23T03:31:35;3.80;;;2.10;;
74373;SDS011;62809;51.090;-115.358;2022-10-23T03:34:02;4.80;;;2.50;;
74373;SDS011;62809;51.090;-115.358;2022-10-23T03:36:36;4.30;;;2.20;;
74373;SDS011;62809;51.090;-115.358;2022-10-23T03:39:03;3.90;;;2.20;;
74373;SDS011;62809;51.090;-115.358;2022-10-23T03:41:31;3.70;;;2.00;;
74373;SDS011;62809;51.090;-115.358;2022-10-23T03:43:59;4.50;;;2.20;;
74373;SDS011;62809;51.090;-115.358;2022-10-23T03:46:26;3.70;;;1.90;;
74373;SDS011;62809;51.090;-115.358;2022-10-23T03:48:53;3.00;;;1.70;;
74373;SDS011;62809;51.090;-115.358;2022-10-23T03:51:23;3.30;;;1.80;;
74373;SDS011;62809;51.090;-115.358;2022-10-23T03:53:51;4.30;;;2.20;;
74373;SDS011;62809;51.090;-115.358;2022-10-23T03:56:18;3.40;;;1.70;;
74373;SDS011;62809;51.090;-115.358;2022-10-23T03:58:48;3.00;;;1.70;;
74373;SDS011;62809;51.090;-115.358;2022-10-23T04:01:15;3.00;;;1.70;;
74373;SDS011;62809;51.090;-115.358;2022-10-23T04:03:43;3.90;;;1.70;;
74373;SDS011;62809;51.090;-115.358;2022-10-23T04:06:10;3.00;;;1.60;;
74373;SDS011;62809;51.090;-115.358;2022-10-23T04:08:43;3.70;;;1.80;;
74373;SDS011;62809;51.090;-115.358;2022-10-23T04:11:11;2.90;;;1.60;;
74373;SDS011;62809;51.090;-115.358;2022-10-23T04:13:38;2.90;;;1.40;;
74373;SDS011;62809;51.090;-115.358;2022-10-23T04:16:05;2.80;;;1.50;;
74373;SDS011;62809;51.090;-115.358;2022-10-23T04:18:34;3.20;;;1.80;;
74373;SDS011;62809;51.090;-115.358;2022-10-23T04:21:01;2.80;;;1.80;;
74373;SDS011;62809;51.090;-115.358;2022-10-23T04:23:30;2.60;;;1.40;;
74373;SDS011;62809;51.090;-115.358;2022-10-23T04:25:57;3.40;;;1.20;;
74373;SDS011;62809;51.090;-115.358;2022-10-23T04:28:26;3.80;;;1.70;;
74373;SDS011;62809;51.090;-115.358;2022-10-23T04:30:53;2.50;;;1.40;;
74373;SDS011;62809;51.090;-115.358;2022-10-23T04:33:20;2.40;;;1.20;;
74373;SDS011;62809;51.090;-115.358;2022-10-23T04:35:49;2.90;;;1.40;;
74373;SDS011;62809;51.090;-115.358;2022-10-23T04:38:16;2.50;;;1.50;;
74373;SDS011;62809;51.090;-115.358;2022-10-23T04:40:43;2.90;;;1.50;;
74373;SDS011;62809;51.090;-115.358;2022-10-23T04:43:10;3.10;;;1.50;;
74373;SDS011;62809;51.090;-115.358;2022-10-23T04:45:37;2.60;;;1.30;;
74373;SDS011;62809;51.090;-115.358;2022-10-23T04:48:07;3.70;;;1.90;;
74373;SDS011;62809;51.090;-115.358;2022-10-23T04:50:37;3.50;;;1.60;;
74373;SDS011;62809;51.090;-115.358;2022-10-23T04:53:07;3.70;;;1.60;;
74373;SDS011;62809;51.090;-115.358;2022-10-23T04:55:35;3.80;;;1.70;;
74373;SDS011;62809;51.090;-115.358;2022-10-23T04:58:03;3.10;;;1.50;;
74373;SDS011;62809;51.090;-115.358;2022-10-23T05:00:32;3.30;;;1.70;;
74373;SDS011;62809;51.090;-115.358;2022-10-23T05:02:59;3.30;;;1.50;;
74373;SDS011;62809;51.090;-115.358;2022-10-23T05:05:30;3.80;;;1.80;;
74373;SDS011;62809;51.090;-115.358;2022-10-23T05:07:57;3.40;;;1.50;;
74373;SDS011;62809;51.090;-115.358;2022-10-23T05:10:28;3.50;;;1.70;;
74373;SDS011;62809;51.090;-115.358;2022-10-23T05:12:56;3.20;;;1.70;;
74373;SDS011;62809;51.090;-115.358;2022-10-23T05:15:23;3.60;;;1.60;;
74373;SDS011;62809;51.090;-115.358;2022-10-23T05:17:59;3.20;;;1.70;;
74373;SDS011;62809;51.090;-115.358;2022-10-23T05:20:34;3.10;;;1.50;;
74373;SDS011;62809;51.090;-115.358;2022-10-23T05:23:07;3.30;;;1.60;;
74373;SDS011;62809;51.090;-115.358;2022-10-23T05:25:39;3.20;;;1.60;;
74373;SDS011;62809;51.090;-115.358;2022-10-23T05:28:07;3.70;;;1.70;;
74373;SDS011;62809;51.090;-115.358;2022-10-23T05:30:38;3.20;;;1.40;;
74373;SDS011;62809;51.090;-115.358;2022-10-23T05:33:08;2.80;;;1.50;;
74373;SDS011;62809;51.090;-115.358;2022-10-23T05:35:37;3.60;;;1.60;;
74373;SDS011;62809;51.090;-115.358;2022-10-23T05:38:07;3.00;;;1.60;;
74373;SDS011;62809;51.090;-115.358;2022-10-23T05:40:36;2.40;;;1.40;;
74373;SDS011;62809;51.090;-115.358;2022-10-23T05:43:05;3.00;;;1.50;;
74373;SDS011;62809;51.090;-115.358;2022-10-23T05:45:34;2.60;;;1.40;;
74373;SDS011;62809;51.090;-115.358;2022-10-23T05:48:01;2.30;;;1.30;;
74373;SDS011;62809;51.090;-115.358;2022-10-23T05:50:30;2.80;;;1.30;;
74373;SDS011;62809;51.090;-115.358;2022-10-23T05:52:58;2.90;;;1.40;;
74373;SDS011;62809;51.090;-115.358;2022-10-23T05:55:28;2.90;;;1.40;;
74373;SDS011;62809;51.090;-115.358;2022-10-23T05:57:55;3.20;;;1.60;;
74373;SDS011;62809;51.090;-115.358;2022-10-23T06:00:23;3.10;;;1.60;;
74373;SDS011;62809;51.090;-115.358;2022-10-23T06:02:50;2.30;;;1.40;;
74373;SDS011;62809;51.090;-115.358;2022-10-23T06:05:19;3.00;;;1.30;;
74373;SDS011;62809;51.090;-115.358;2022-10-23T06:07:47;3.30;;;1.50;;
74373;SDS011;62809;51.090;-115.358;2022-10-23T06:10:14;2.60;;;1.20;;
74373;SDS011;62809;51.090;-115.358;2022-10-23T06:12:41;3.10;;;1.40;;
74373;SDS011;62809;51.090;-115.358;2022-10-23T06:15:10;1.60;;;1.00;;
74373;SDS011;62809;51.090;-115.358;2022-10-23T06:17:41;2.20;;;0.90;;
74373;SDS011;62809;51.090;-115.358;2022-10-23T06:20:09;2.30;;;1.10;;
74373;SDS011;62809;51.090;-115.358;2022-10-23T06:22:36;2.20;;;1.20;;
74373;SDS011;62809;51.090;-115.358;2022-10-23T06:25:07;2.60;;;1.30;;
74373;SDS011;62809;51.090;-115.358;2022-10-23T06:27:34;2.10;;;1.00;;
74373;SDS011;62809;51.090;-115.358;2022-10-23T06:30:01;2.20;;;1.20;;
74373;SDS011;62809;51.090;-115.358;2022-10-23T06:32:31;2.60;;;1.20;;
74373;SDS011;62809;51.090;-115.358;2022-10-23T06:34:58;2.10;;;1.10;;
74373;SDS011;62809;51.090;-115.358;2022-10-23T06:37:25;2.10;;;1.10;;
74373;SDS011;62809;51.090;-115.358;2022-10-23T06:39:53;2.60;;;1.00;;
74373;SDS011;62809;51.090;-115.358;2022-10-23T06:42:22;1.60;;;1.00;;
74373;SDS011;62809;51.090;-115.358;2022-10-23T06:44:49;2.00;;;1.10;;
74373;SDS011;62809;51.090;-115.358;2022-10-23T06:47:17;1.70;;;1.00;;
74373;SDS011;62809;51.090;-115.358;2022-10-23T06:49:43;1.70;;;1.00;;
74373;SDS011;62809;51.090;-115.358;2022-10-23T06:52:11;2.30;;;1.20;;
74373;SDS011;62809;51.090;-115.358;2022-10-23T06:54:39;2.10;;;1.00;;
74373;SDS011;62809;51.090;-115.358;2022-10-23T06:57:06;1.80;;;0.90;;
74373;SDS011;62809;51.090;-115.358;2022-10-23T06:59:35;2.20;;;1.20;;
74373;SDS011;62809;51.090;-115.358;2022-10-23T07:02:02;2.30;;;1.10;;
74373;SDS011;62809;51.090;-115.358;2022-10-23T07:04:33;1.50;;;0.80;;
74373;SDS011;62809;51.090;-115.358;2022-10-23T07:07:00;2.20;;;1.00;;
74373;SDS011;62809;51.090;-115.358;2022-10-23T07:09:29;2.40;;;1.10;;
74373;SDS011;62809;51.090;-115.358;2022-10-23T07:11:59;2.20;;;1.00;;
74373;SDS011;62809;51.090;-115.358;2022-10-23T07:14:26;1.40;;;0.80;;
74373;SDS011;62809;51.090;-115.358;2022-10-23T07:16:57;1.90;;;1.10;;
74373;SDS011;62809;51.090;-115.358;2022-10-23T07:19:26;1.60;;;0.80;;
74373;SDS011;62809;51.090;-115.358;2022-10-23T07:21:54;2.00;;;0.80;;
74373;SDS011;62809;51.090;-115.358;2022-10-23T07:24:22;2.40;;;1.00;;
74373;SDS011;62809;51.090;-115.358;2022-10-23T07:26:50;2.30;;;1.00;;
74373;SDS011;62809;51.090;-115.358;2022-10-23T07:29:17;1.60;;;0.90;;
74373;SDS011;62809;51.090;-115.358;2022-10-23T07:31:46;1.30;;;0.80;;
74373;SDS011;62809;51.090;-115.358;2022-10-23T07:34:15;1.50;;;0.90;;
74373;SDS011;62809;51.090;-115.358;2022-10-23T07:36:44;1.70;;;0.80;;
74373;SDS011;62809;51.090;-115.358;2022-10-23T07:39:12;2.40;;;1.20;;
74373;SDS011;62809;51.090;-115.358;2022-10-23T07:41:41;2.10;;;1.00;;
74373;SDS011;62809;51.090;-115.358;2022-10-23T07:44:08;2.30;;;1.00;;
74373;SDS011;62809;51.090;-115.358;2022-10-23T07:46:36;3.40;;;1.40;;
74373;SDS011;62809;51.090;-115.358;2022-10-23T07:49:03;2.00;;;1.00;;
74373;SDS011;62809;51.090;-115.358;2022-10-23T07:51:30;2.50;;;1.20;;
74373;SDS011;62809;51.090;-115.358;2022-10-23T07:53:59;2.30;;;1.20;;
74373;SDS011;62809;51.090;-115.358;2022-10-23T07:56:28;1.50;;;0.80;;
74373;SDS011;62809;51.090;-115.358;2022-10-23T07:58:56;1.80;;;1.00;;
74373;SDS011;62809;51.090;-115.358;2022-10-23T08:01:35;2.20;;;0.90;;
74373;SDS011;62809;51.090;-115.358;2022-10-23T08:04:05;1.80;;;1.10;;
74373;SDS011;62809;51.090;-115.358;2022-10-23T08:06:34;2.20;;;1.10;;
74373;SDS011;62809;51.090;-115.358;2022-10-23T08:09:02;3.80;;;1.40;;
74373;SDS011;62809;51.090;-115.358;2022-10-23T08:11:29;4.00;;;1.40;;
74373;SDS011;62809;51.090;-115.358;2022-10-23T08:14:03;2.70;;;1.20;;
74373;SDS011;62809;51.090;-115.358;2022-10-23T08:16:32;3.00;;;1.30;;
74373;SDS011;62809;51.090;-115.358;2022-10-23T08:19:03;3.30;;;1.20;;
74373;SDS011;62809;51.090;-115.358;2022-10-23T08:21:33;2.10;;;1.10;;
74373;SDS011;62809;51.090;-115.358;2022-10-23T08:24:00;2.50;;;1.20;;
74373;SDS011;62809;51.090;-115.358;2022-10-23T08:26:29;2.90;;;1.20;;
74373;SDS011;62809;51.090;-115.358;2022-10-23T08:29:00;2.50;;;1.20;;
74373;SDS011;62809;51.090;-115.358;2022-10-23T08:31:28;2.60;;;1.20;;
74373;SDS011;62809;51.090;-115.358;2022-10-23T08:33:55;2.40;;;1.20;;
74373;SDS011;62809;51.090;-115.358;2022-10-23T08:36:25;2.50;;;1.40;;
74373;SDS011;62809;51.090;-115.358;2022-10-23T08:38:56;3.10;;;1.40;;
74373;SDS011;62809;51.090;-115.358;2022-10-23T08:41:35;2.80;;;1.40;;
74373;SDS011;62809;51.090;-115.358;2022-10-23T08:47:11;3.10;;;1.50;;
74373;SDS011;62809;51.090;-115.358;2022-10-23T08:52:38;2.80;;;1.30;;
74373;SDS011;62809;51.090;-115.358;2022-10-23T09:00:49;2.30;;;1.10;;
74373;SDS011;62809;51.090;-115.358;2022-10-23T09:03:18;2.70;;;1.20;;
74373;SDS011;62809;51.090;-115.358;2022-10-23T09:09:04;2.40;;;1.30;;
74373;SDS011;62809;51.090;-115.358;2022-10-23T09:11:41;2.70;;;1.20;;
74373;SDS011;62809;51.090;-115.358;2022-10-23T09:16:58;3.50;;;1.30;;
74373;SDS011;62809;51.090;-115.358;2022-10-23T09:19:38;2.90;;;1.20;;
74373;SDS011;62809;51.090;-115.358;2022-10-23T09:22:12;2.90;;;1.20;;
74373;SDS011;62809;51.090;-115.358;2022-10-23T09:24:44;2.30;;;1.10;;
74373;SDS011;62809;51.090;-115.358;2022-10-23T09:27:15;2.50;;;1.00;;
74373;SDS011;62809;51.090;-115.358;2022-10-23T09:29:50;3.20;;;1.60;;
74373;SDS011;62809;51.090;-115.358;2022-10-23T09:32:31;3.10;;;1.30;;
74373;SDS011;62809;51.090;-115.358;2022-10-23T09:35:03;2.30;;;1.30;;
74373;SDS011;62809;51.090;-115.358;2022-10-23T09:37:33;2.60;;;1.10;;
74373;SDS011;62809;51.090;-115.358;2022-10-23T09:40:16;2.40;;;1.00;;
74373;SDS011;62809;51.090;-115.358;2022-10-23T09:42:59;2.40;;;1.20;;
74373;SDS011;62809;51.090;-115.358;2022-10-23T09:45:35;2.50;;;1.30;;
74373;SDS011;62809;51.090;-115.358;2022-10-23T09:50:48;1.90;;;0.90;;
74373;SDS011;62809;51.090;-115.358;2022-10-23T09:53:39;2.60;;;1.10;;
74373;SDS011;62809;51.090;-115.358;2022-10-23T09:59:03;2.10;;;1.00;;
74373;SDS011;62809;51.090;-115.358;2022-10-23T10:01:53;3.10;;;1.40;;
74373;SDS011;62809;51.090;-115.358;2022-10-23T10:04:37;2.80;;;1.20;;
74373;SDS011;62809;51.090;-115.358;2022-10-23T10:07:18;2.50;;;1.30;;
74373;SDS011;62809;51.090;-115.358;2022-10-23T10:09:49;2.00;;;1.10;;
74373;SDS011;62809;51.090;-115.358;2022-10-23T10:18:20;2.30;;;1.00;;
74373;SDS011;62809;51.090;-115.358;2022-10-23T10:29:51;2.00;;;1.00;;
74373;SDS011;62809;51.090;-115.358;2022-10-23T10:33:08;2.70;;;1.10;;
74373;SDS011;62809;51.090;-115.358;2022-10-23T10:35:42;1.80;;;0.90;;
74373;SDS011;62809;51.090;-115.358;2022-10-23T10:53:17;1.90;;;1.00;;
74373;SDS011;62809;51.090;-115.358;2022-10-23T10:55:50;2.00;;;1.20;;
74373;SDS011;62809;51.090;-115.358;2022-10-23T10:58:40;1.70;;;0.90;;
74373;SDS011;62809;51.090;-115.358;2022-10-23T11:04:09;2.40;;;1.10;;
74373;SDS011;62809;51.090;-115.358;2022-10-23T11:06:37;1.70;;;0.80;;
74373;SDS011;62809;51.090;-115.358;2022-10-23T11:09:21;2.30;;;1.10;;
74373;SDS011;62809;51.090;-115.358;2022-10-23T11:11:54;2.70;;;1.30;;
74373;SDS011;62809;51.090;-115.358;2022-10-23T11:14:24;2.00;;;1.00;;
74373;SDS011;62809;51.090;-115.358;2022-10-23T11:19:58;1.80;;;0.90;;
74373;SDS011;62809;51.090;-115.358;2022-10-23T11:23:25;1.70;;;0.90;;
74373;SDS011;62809;51.090;-115.358;2022-10-23T11:29:40;2.90;;;1.20;;
74373;SDS011;62809;51.090;-115.358;2022-10-23T11:33:01;1.80;;;1.00;;
74373;SDS011;62809;51.090;-115.358;2022-10-23T11:38:34;2.10;;;1.20;;
74373;SDS011;62809;51.090;-115.358;2022-10-23T11:41:15;2.00;;;1.10;;
74373;SDS011;62809;51.090;-115.358;2022-10-23T11:43:52;2.10;;;1.10;;
74373;SDS011;62809;51.090;-115.358;2022-10-23T11:49:00;2.10;;;1.00;;
74373;SDS011;62809;51.090;-115.358;2022-10-23T11:51:36;2.40;;;1.10;;
74373;SDS011;62809;51.090;-115.358;2022-10-23T11:54:23;2.30;;;1.20;;
74373;SDS011;62809;51.090;-115.358;2022-10-23T12:02:34;2.20;;;1.20;;
74373;SDS011;62809;51.090;-115.358;2022-10-23T12:05:24;2.80;;;1.30;;
74373;SDS011;62809;51.090;-115.358;2022-10-23T12:08:06;2.20;;;1.30;;
74373;SDS011;62809;51.090;-115.358;2022-10-23T12:10:47;2.80;;;1.20;;
74373;SDS011;62809;51.090;-115.358;2022-10-23T12:16:06;1.80;;;1.00;;
74373;SDS011;62809;51.090;-115.358;2022-10-23T12:18:45;2.30;;;1.20;;
74373;SDS011;62809;51.090;-115.358;2022-10-23T12:21:18;2.00;;;1.10;;
74373;SDS011;62809;51.090;-115.358;2022-10-23T12:27:09;2.40;;;1.20;;
74373;SDS011;62809;51.090;-115.358;2022-10-23T12:30:16;2.40;;;1.00;;
74373;SDS011;62809;51.090;-115.358;2022-10-23T12:33:04;2.70;;;1.40;;
74373;SDS011;62809;51.090;-115.358;2022-10-23T12:39:02;2.10;;;1.10;;
74373;SDS011;62809;51.090;-115.358;2022-10-23T12:41:49;3.00;;;1.30;;
74373;SDS011;62809;51.090;-115.358;2022-10-23T12:44:17;2.70;;;1.20;;
74373;SDS011;62809;51.090;-115.358;2022-10-23T12:46:54;2.50;;;1.30;;
74373;SDS011;62809;51.090;-115.358;2022-10-23T12:49:25;2.80;;;1.30;;
74373;SDS011;62809;51.090;-115.358;2022-10-23T12:51:59;2.50;;;1.20;;
74373;SDS011;62809;51.090;-115.358;2022-10-23T12:54:38;2.60;;;1.40;;
74373;SDS011;62809;51.090;-115.358;2022-10-23T12:57:26;2.10;;;1.20;;
74373;SDS011;62809;51.090;-115.358;2022-10-23T13:00:07;2.70;;;1.40;;
74373;SDS011;62809;51.090;-115.358;2022-10-23T13:02:39;2.80;;;1.40;;
74373;SDS011;62809;51.090;-115.358;2022-10-23T13:05:07;2.70;;;1.40;;
74373;SDS011;62809;51.090;-115.358;2022-10-23T13:07:47;3.50;;;1.50;;
74373;SDS011;62809;51.090;-115.358;2022-10-23T13:10:19;2.80;;;1.50;;
74373;SDS011;62809;51.090;-115.358;2022-10-23T13:13:06;3.30;;;1.50;;
74373;SDS011;62809;51.090;-115.358;2022-10-23T13:15:41;2.30;;;1.30;;
74373;SDS011;62809;51.090;-115.358;2022-10-23T13:18:13;3.00;;;1.20;;
74373;SDS011;62809;51.090;-115.358;2022-10-23T13:26:02;2.60;;;1.30;;
74373;SDS011;62809;51.090;-115.358;2022-10-23T13:28:42;3.10;;;1.30;;
74373;SDS011;62809;51.090;-115.358;2022-10-23T13:33:44;2.50;;;1.40;;
74373;SDS011;62809;51.090;-115.358;2022-10-23T13:38:47;3.20;;;1.50;;
74373;SDS011;62809;51.090;-115.358;2022-10-23T13:41:38;2.40;;;1.30;;
74373;SDS011;62809;51.090;-115.358;2022-10-23T13:44:17;2.00;;;1.10;;
74373;SDS011;62809;51.090;-115.358;2022-10-23T13:46:46;2.70;;;1.30;;
74373;SDS011;62809;51.090;-115.358;2022-10-23T13:49:15;2.60;;;1.30;;
74373;SDS011;62809;51.090;-115.358;2022-10-23T13:51:51;2.30;;;1.30;;
74373;SDS011;62809;51.090;-115.358;2022-10-23T13:54:25;2.40;;;1.20;;
74373;SDS011;62809;51.090;-115.358;2022-10-23T13:56:54;2.60;;;1.30;;
74373;SDS011;62809;51.090;-115.358;2022-10-23T13:59:24;2.50;;;1.30;;
74373;SDS011;62809;51.090;-115.358;2022-10-23T14:01:51;2.20;;;1.20;;
74373;SDS011;62809;51.090;-115.358;2022-10-23T14:04:20;2.30;;;1.40;;
74373;SDS011;62809;51.090;-115.358;2022-10-23T14:06:49;2.40;;;1.20;;
74373;SDS011;62809;51.090;-115.358;2022-10-23T14:09:23;3.10;;;1.30;;
74373;SDS011;62809;51.090;-115.358;2022-10-23T14:11:51;2.70;;;1.30;;
74373;SDS011;62809;51.090;-115.358;2022-10-23T14:14:18;3.70;;;1.50;;
74373;SDS011;62809;51.090;-115.358;2022-10-23T14:16:46;3.20;;;1.40;;
74373;SDS011;62809;51.090;-115.358;2022-10-23T14:19:14;3.10;;;1.40;;
74373;SDS011;62809;51.090;-115.358;2022-10-23T14:21:42;2.20;;;1.10;;
74373;SDS011;62809;51.090;-115.358;2022-10-23T14:24:09;3.00;;;1.30;;
74373;SDS011;62809;51.090;-115.358;2022-10-23T14:26:40;2.50;;;1.30;;
74373;SDS011;62809;51.090;-115.358;2022-10-23T14:29:08;3.20;;;1.40;;
74373;SDS011;62809;51.090;-115.358;2022-10-23T14:31:36;2.70;;;1.50;;
74373;SDS011;62809;51.090;-115.358;2022-10-23T14:34:03;2.90;;;1.20;;
74373;SDS011;62809;51.090;-115.358;2022-10-23T14:36:30;3.40;;;1.60;;
74373;SDS011;62809;51.090;-115.358;2022-10-23T14:38:58;2.50;;;1.30;;
74373;SDS011;62809;51.090;-115.358;2022-10-23T14:41:26;2.70;;;1.50;;
74373;SDS011;62809;51.090;-115.358;2022-10-23T14:43:54;3.30;;;1.60;;
74373;SDS011;62809;51.090;-115.358;2022-10-23T14:46:22;3.40;;;1.50;;
74373;SDS011;62809;51.090;-115.358;2022-10-23T14:48:52;2.40;;;1.30;;
74373;SDS011;62809;51.090;-115.358;2022-10-23T14:51:24;2.70;;;1.40;;
74373;SDS011;62809;51.090;-115.358;2022-10-23T14:54:00;3.10;;;1.30;;
74373;SDS011;62809;51.090;-115.358;2022-10-23T14:56:32;3.00;;;1.40;;
74373;SDS011;62809;51.090;-115.358;2022-10-23T14:59:06;3.00;;;1.50;;
74373;SDS011;62809;51.090;-115.358;2022-10-23T15:01:38;2.50;;;1.20;;
74373;SDS011;62809;51.090;-115.358;2022-10-23T15:04:09;3.10;;;1.50;;
74373;SDS011;62809;51.090;-115.358;2022-10-23T15:06:39;3.20;;;1.40;;
74373;SDS011;62809;51.090;-115.358;2022-10-23T15:09:07;2.70;;;1.30;;
74373;SDS011;62809;51.090;-115.358;2022-10-23T15:11:37;3.20;;;1.40;;
74373;SDS011;62809;51.090;-115.358;2022-10-23T15:14:04;2.80;;;1.40;;
74373;SDS011;62809;51.090;-115.358;2022-10-23T15:16:34;2.20;;;1.20;;
74373;SDS011;62809;51.090;-115.358;2022-10-23T15:19:13;3.30;;;1.40;;
74373;SDS011;62809;51.090;-115.358;2022-10-23T15:21:41;2.50;;;1.30;;
74373;SDS011;62809;51.090;-115.358;2022-10-23T15:24:08;2.80;;;1.40;;
74373;SDS011;62809;51.090;-115.358;2022-10-23T15:26:36;2.10;;;1.20;;
74373;SDS011;62809;51.090;-115.358;2022-10-23T15:29:03;2.80;;;1.30;;
74373;SDS011;62809;51.090;-115.358;2022-10-23T15:34:04;2.80;;;1.40;;
74373;SDS011;62809;51.090;-115.358;2022-10-23T15:36:33;3.10;;;1.30;;
74373;SDS011;62809;51.090;-115.358;2022-10-23T15:39:00;2.40;;;1.10;;
74373;SDS011;62809;51.090;-115.358;2022-10-23T15:41:36;3.30;;;1.80;;
74373;SDS011;62809;51.090;-115.358;2022-10-23T15:44:07;2.70;;;1.40;;
74373;SDS011;62809;51.090;-115.358;2022-10-23T15:46:37;2.60;;;1.50;;
74373;SDS011;62809;51.090;-115.358;2022-10-23T15:49:04;3.70;;;1.40;;
74373;SDS011;62809;51.090;-115.358;2022-10-23T15:51:35;2.70;;;1.40;;
74373;SDS011;62809;51.090;-115.358;2022-10-23T15:54:05;2.20;;;1.10;;
74373;SDS011;62809;51.090;-115.358;2022-10-23T15:56:33;2.70;;;1.20;;
74373;SDS011;62809;51.090;-115.358;2022-10-23T15:59:04;3.00;;;1.50;;
74373;SDS011;62809;51.090;-115.358;2022-10-23T16:01:31;2.50;;;1.40;;
74373;SDS011;62809;51.090;-115.358;2022-10-23T16:03:59;2.60;;;1.30;;
74373;SDS011;62809;51.090;-115.358;2022-10-23T16:06:27;2.10;;;1.20;;
74373;SDS011;62809;51.090;-115.358;2022-10-23T16:08:56;3.00;;;1.50;;
74373;SDS011;62809;51.090;-115.358;2022-10-23T16:11:27;3.40;;;1.50;;
74373;SDS011;62809;51.090;-115.358;2022-10-23T16:14:00;2.20;;;1.30;;
74373;SDS011;62809;51.090;-115.358;2022-10-23T16:16:32;2.80;;;1.40;;
74373;SDS011;62809;51.090;-115.358;2022-10-23T16:19:00;2.50;;;1.20;;
74373;SDS011;62809;51.090;-115.358;2022-10-23T16:21:32;2.60;;;1.30;;
74373;SDS011;62809;51.090;-115.358;2022-10-23T16:24:05;2.90;;;1.50;;
74373;SDS011;62809;51.090;-115.358;2022-10-23T16:26:33;2.90;;;1.60;;
74373;SDS011;62809;51.090;-115.358;2022-10-23T16:29:04;3.50;;;1.40;;
74373;SDS011;62809;51.090;-115.358;2022-10-23T16:31:33;3.00;;;1.30;;
74373;SDS011;62809;51.090;-115.358;2022-10-23T16:34:03;3.20;;;1.40;;
74373;SDS011;62809;51.090;-115.358;2022-10-23T16:36:33;2.20;;;1.20;;
74373;SDS011;62809;51.090;-115.358;2022-10-23T16:39:04;2.30;;;1.20;;
74373;SDS011;62809;51.090;-115.358;2022-10-23T16:41:34;2.50;;;1.20;;
74373;SDS011;62809;51.090;-115.358;2022-10-23T16:44:01;2.80;;;1.40;;
74373;SDS011;62809;51.090;-115.358;2022-10-23T16:46:29;2.30;;;1.20;;
74373;SDS011;62809;51.090;-115.358;2022-10-23T16:48:57;2.20;;;1.20;;